Station: Groote Eylandt Airport  

  Atmospheric Gas Attenuation - ITU Rec 676-11   ----------------- dB/100km -----------------
Date Time Temp RH % AH g/m3 Dew Point Wind Direction Speed kph Gust kph Barometer mB Rainfall Since 9am 24GHz 47GHz 76GHz 122GHz 134GHz 241GHz
08/05 12:00 28.6 62 17.43 20.6 19 28 1012 0 37.3 35.5 66.6 176.2 191.5 665.5
08/05 11:50 28.9 62 17.71 20.9 24 30 1012.1 0 37.9 35.9 67.6 178.8 194.7 676.6
08/05 11:40 28.2 65 17.87 21 13 19 1012.2 0 38.3 36.5 68.9 182.3 198.8 690.8
08/05 11:30 28.6 65 18.27 21.4 19 30 1012.4 0 39.1 37.0 70.3 186.0 203.5 707.3
08/05 11:20 28.9 62 17.71 21.1 13 19 1012.5 0 37.8 35.9 67.6 178.8 194.8 676.8
08/05 11:10 28.5 64 17.89 21 11 13 1012.6 0 38.3 36.4 68.8 181.8 198.4 689.3
08/05 11:00 28.4 63 17.51 20.7 15 24 1012.6 0 37.5 35.8 67.2 177.7 193.2 671.4
08/05 10:50 28.8 62 17.62 21 15 19 1012.6 0 37.7 35.8 67.3 178.0 193.8 673.3
08/05 10:40 29.3 62 18.1 21.3 11 17 1012.7 0 38.6 36.4 69.0 182.4 199.3 692.6
08/05 10:30 28.4 63 17.51 20.7 15 28 1012.7 0 37.5 35.8 67.2 177.7 193.2 671.5
08/05 10:20 28.5 64 17.89 21 13 19 1012.8 0 38.3 36.4 68.8 181.9 198.4 689.4
08/05 10:10 28 65 17.68 20.8 13 17 1012.9 0 37.9 36.3 68.3 180.6 196.7 683.5
08/05 10:00 28 66 17.95 21.1 17 33 1013 0 38.4 36.7 69.5 183.8 200.6 697.0
08/05 09:50 27.9 65 17.58 20.7 17 28 1013 0 37.7 36.1 68.0 179.7 195.6 679.4
08/05 09:40 27.4 67 17.63 20.7 19 24 1013.1 0 37.8 36.4 68.6 181.5 197.6 686.4
08/05 09:30 27.4 67 17.63 20.7 19 35 1013 0 37.8 36.4 68.6 181.5 197.6 686.4
08/05 09:20 27.7 69 18.46 21.5 9 13 1013.1 0 39.5 37.8 72.0 190.6 208.8 725.6
08/05 09:10 27.5 67 17.73 20.8 13 19 1013 0 38.0 36.6 69.0 182.4 198.7 690.5
08/05 09:00 27.6 66 17.56 20.7 17 32 1012.8 0 37.7 36.2 68.1 180.1 196.0 681.0
08/05 08:50 27.9 66 17.85 21 19 24 1012.8 0 38.2 36.6 69.1 182.8 199.4 692.8
08/05 08:40 27.8 66 17.75 20.9 17 26 1012.6 0 38.0 36.5 68.8 181.9 198.2 688.6
08/05 08:30 27.5 67 17.73 20.8 13 24 1012.6 0 38.0 36.5 68.9 182.3 198.7 690.3
08/05 08:20 27.4 69 18.16 21.2 13 19 1012.5 0 38.9 37.4 70.9 187.6 205.2 712.9
08/05 08:10 26.9 71 18.17 21.2 11 13 1012.5 0 39.0 37.6 71.5 189.0 206.7 718.1
08/05 08:00 26.7 72 18.23 21.2 7 13 1012.5 0 39.2 37.8 71.9 190.2 208.1 723.0
08/05 07:50 26.3 74 18.32 21.3 4 6 1012.6 0 39.4 38.1 72.7 192.3 210.6 731.5
08/05 07:40 25.7 77 18.43 21.4 6 6 1012.6 0 39.7 38.6 73.8 195.2 213.9 743.1
08/05 07:30 25.1 77 17.82 20.8 6 7 1012.5 0 38.4 37.8 71.6 189.2 206.4 716.9
08/05 07:20 24.6 81 18.23 21.1 6 6 1012.4 0 39.4 38.7 73.9 195.5 214.0 743.2
08/05 07:10 24.2 83 18.26 21.1 4 6 1012.3 0 39.5 39.0 74.4 196.9 215.6 748.7
08/05 07:00 23.1 85 17.57 20.4 6 7 1012.1 0 38.1 38.2 72.3 191.1 208.1 722.6
08/05 06:50 22.4 88 17.48 20.3 4 6 1011.9 0 38.0 38.3 72.5 191.7 208.7 724.4
08/05 06:40 21.7 91 17.36 20.2 6 6 1011.8 0 37.8 38.4 72.6 191.9 208.8 724.6
08/05 06:30 21.2 93 17.23 20 4 7 1011.8 0 37.6 38.4 72.5 191.6 208.1 722.3
08/05 06:20 20.9 93 16.94 19.7 4 6 1011.7 0 37.0 38.0 71.4 188.6 204.5 709.5
08/05 06:10 20.8 93 16.84 19.6 0 0 1011.5 0 36.8 37.8 71.0 187.6 203.1 704.9
08/05 06:00 20.8 92 16.66 19.5 6 7 1011.4 0 36.4 37.5 70.1 185.3 200.3 695.2
08/05 05:50 20.8 92 16.66 19.5 6 6 1011.3 0 36.4 37.5 70.1 185.3 200.3 695.1
08/05 05:40 20.8 92 16.66 19.5 4 6 1011.2 0 36.4 37.5 70.1 185.3 200.3 695.1
08/05 05:30 20.7 93 16.74 19.5 6 7 1011.2 0 36.6 37.7 70.6 186.5 201.8 700.3
08/05 05:20 20.7 93 16.74 19.5 4 6 1011.3 0 36.6 37.7 70.6 186.5 201.8 700.3
08/05 05:10 20.6 93 16.64 19.4 6 6 1011.3 0 36.4 37.5 70.2 185.5 200.6 695.9
08/05 05:00 20.6 93 16.64 19.4 4 7 1011.2 0 36.4 37.5 70.2 185.5 200.5 695.8
08/05 04:50 20.5 93 16.55 19.3 4 6 1011.3 0 36.2 37.4 69.9 184.6 199.4 692.0
08/05 04:40 20.4 93 16.45 19.2 6 6 1011.4 0 36.0 37.2 69.5 183.6 198.2 687.6
08/05 04:30 20.4 93 16.45 19.2 2 6 1011.3 0 36.0 37.2 69.5 183.6 198.2 687.5
08/05 04:20 20.5 93 16.55 19.3 6 6 1011.3 0 36.2 37.4 69.9 184.6 199.4 692.0
08/05 04:10 20.6 93 16.64 19.4 6 6 1011.4 0 36.4 37.5 70.2 185.5 200.6 695.9
08/05 04:00 20.6 94 16.82 19.6 6 7 1011.4 0 36.7 37.9 71.0 187.8 203.4 705.6
08/05 03:50 20.7 93 16.74 19.5 7 7 1011.6 0 36.6 37.7 70.6 186.6 201.9 700.5
08/05 03:40 20.7 93 16.74 19.5 6 7 1011.5 0 36.6 37.7 70.6 186.6 201.9 700.4
08/05 03:30 20.8 93 16.84 19.6 4 6 1011.6 0 36.8 37.8 71.0 187.6 203.2 704.9
08/05 03:20 20.8 93 16.84 19.6 6 6 1011.8 0 36.8 37.8 71.0 187.6 203.2 705.0
08/05 03:10 20.9 92 16.75 19.6 0 0 1011.7 0 36.6 37.6 70.5 186.2 201.5 699.2
08/05 03:00 21 93 17.03 19.8 2 6 1011.8 0 37.2 38.1 71.7 189.5 205.6 713.4
08/05 02:50 21 92 16.85 19.6 6 6 1011.8 0 36.8 37.8 70.8 187.3 202.8 703.7
08/05 02:40 21 92 16.85 19.6 6 6 1011.8 0 36.8 37.8 70.8 187.3 202.8 703.7
08/05 02:30 21 93 17.03 19.8 6 7 1011.8 0 37.2 38.1 71.7 189.5 205.6 713.4
08/05 02:20 21 93 17.03 19.8 6 7 1011.9 0 37.2 38.1 71.7 189.5 205.6 713.5
08/05 02:10 21.1 93 17.13 19.9 7 7 1012 0 37.4 38.3 72.1 190.6 206.9 718.0
08/05 02:00 21.2 92 17.05 19.8 6 7 1012 0 37.2 38.1 71.6 189.3 205.4 712.7
08/05 01:50 21.3 92 17.15 19.9 6 6 1012.1 0 37.4 38.2 72.0 190.3 206.7 717.2
08/05 01:40 21.4 91 17.06 19.9 0 0 1012.1 0 37.2 38.0 71.5 189.0 205.0 711.4
08/05 01:30 21.5 91 17.16 20 0 0 1012.2 0 37.4 38.1 71.9 190.0 206.3 715.9
08/05 01:20 21.6 90 17.07 19.9 0 0 1012.3 0 37.2 37.9 71.3 188.6 204.6 710.2
08/05 01:10 21.9 90 17.37 20.2 0 0 1012.5 0 37.8 38.4 72.5 191.7 208.5 723.5
08/05 01:00 22 89 17.27 20.1 2 6 1012.5 0 37.6 38.1 71.9 190.1 206.6 717.2
08/05 00:50 22.1 86 16.79 19.6 0 0 1012.6 0 36.5 37.2 69.6 183.9 199.0 690.8
08/05 00:40 22.5 84 16.78 19.7 0 0 1012.6 0 36.5 37.0 69.2 182.8 197.8 686.6
08/05 00:30 22.9 84 17.17 20.1 4 7 1012.8 0 37.3 37.5 70.6 186.7 202.7 703.6
08/05 00:20 23.1 82 16.95 19.9 6 7 1012.9 0 36.8 37.1 69.4 183.5 198.8 690.2
08/05 00:10 23.4 82 17.24 20.1 7 9 1013 0 37.4 37.5 70.5 186.4 202.4 702.7
08/05 00:00 23.8 79 16.99 19.9 6 7 1013.1 0 36.8 36.8 69.0 182.4 197.6 686.1
07/05 23:50 24 78 16.97 19.9 6 7 1013.1 0 36.7 36.7 68.7 181.7 196.8 683.2
07/05 23:40 24.3 76 16.82 19.8 6 7 1013.2 0 36.4 36.3 67.8 179.1 193.8 672.9
07/05 23:30 24.5 75 16.78 19.8 7 13 1013.2 0 36.3 36.2 67.4 178.2 192.7 669.1
07/05 23:20 24.8 74 16.84 19.8 7 11 1013.3 0 36.4 36.1 67.4 178.2 192.8 669.6
07/05 23:10 24.9 74 16.94 19.9 9 11 1013.3 0 36.6 36.3 67.8 179.2 194.0 673.8
07/05 23:00 24.9 74 16.94 19.9 9 17 1013.3 0 36.6 36.3 67.8 179.2 194.0 673.8
07/05 22:50 24.8 75 17.07 20.1 9 11 1013.3 0 36.9 36.6 68.5 181.0 196.2 681.3
07/05 22:40 24.5 77 17.23 20.2 11 13 1013.2 0 37.2 37.0 69.5 183.6 199.4 692.2
07/05 22:30 24.2 80 17.6 20.5 9 17 1013.3 0 38.1 37.8 71.4 188.9 205.7 714.3
07/05 22:20 23.8 82 17.64 20.5 9 9 1013.5 0 38.2 38.1 72.0 190.4 207.5 720.3
07/05 22:10 23.5 84 17.76 20.6 7 11 1013.6 0 38.5 38.4 72.9 192.7 210.1 729.6
07/05 22:00 23.2 86 17.88 20.7 6 9 1013.8 0 38.8 38.8 73.7 195.0 212.9 739.0
07/05 21:50 22.7 88 17.78 20.6 4 6 1013.7 0 38.6 38.8 73.7 195.0 212.7 738.5
07/05 21:40 22.8 88 17.88 20.7 0 0 1013.7 0 38.8 39.0 74.1 196.0 214.0 742.9
07/05 21:30 22.9 87 17.78 20.6 0 0 1013.7 0 38.6 38.7 73.5 194.5 212.2 736.5
07/05 21:20 23.2 86 17.88 20.7 0 0 1013.8 0 38.8 38.8 73.7 195.0 212.9 739.0
07/05 21:10 23.7 84 17.97 20.8 0 0 1013.8 0 38.9 38.7 73.7 194.8 212.8 738.9
07/05 21:00 23.9 83 17.96 20.8 0 6 1013.8 0 38.9 38.6 73.4 194.2 212.1 736.5
07/05 20:50 24.2 82 18.04 20.9 4 6 1013.9 0 39.0 38.6 73.5 194.4 212.5 737.8
07/05 20:40 24.4 80 17.8 20.7 6 6 1013.8 0 38.5 38.1 72.2 190.9 208.3 723.2
07/05 20:30 24.3 80 17.7 20.6 4 7 1013.8 0 38.3 37.9 71.8 189.9 207.0 718.9
07/05 20:20 24.4 80 17.8 20.7 4 6 1013.7 0 38.5 38.1 72.2 190.9 208.2 723.1
07/05 20:10 24.7 79 17.88 20.8 4 6 1013.6 0 38.6 38.1 72.3 191.1 208.6 724.4
07/05 20:00 24.8 78 17.75 20.7 6 7 1013.5 0 38.3 37.8 71.6 189.2 206.4 716.6
07/05 19:50 24.8 78 17.75 20.7 6 7 1013.4 0 38.3 37.8 71.6 189.2 206.3 716.6
07/05 19:40 24.9 78 17.85 20.8 7 9 1013.3 0 38.5 37.9 71.9 190.2 207.6 720.8
07/05 19:30 25 77 17.72 20.7 6 9 1013.1 0 38.2 37.6 71.2 188.3 205.3 713.0

Last Refresh: 08-May-2026 12:09:34

Bureau of Meteorology